Time;durP1;ratioP1;P1;durP2;ratioP2;P2;SDS_P1;SDS_P2;PMS_P1;PMS_P2;Temp;Humidity;BMP_temperature;BMP_pressure;BME280_temperature;BME280_humidity;BME280_pressure;Samples;Min_cycle;Max_cycle;Signal;HPM_P1;HPM_P2
2022/10/02 00:01:47;;;;;;;;;7.50;6.25;;;;;18.49;50.41;101453.69;5057779;28;45249;-55
2022/10/02 00:04:18;;;;;;;;;7.00;5.25;;;;;18.48;50.12;101449.31;5030476;28;48103;-56
2022/10/02 00:06:48;;;;;;;;;6.00;5.25;;;;;18.49;50.48;101443.06;5057548;28;45353;-55
2022/10/02 00:09:22;;;;;;;;;10.25;8.00;;;;;18.49;50.18;101448.38;5059585;28;45442;-56
2022/10/02 00:11:52;;;;;;;;;9.75;9.25;;;;;18.48;50.25;101449.31;5058234;28;45492;-54
2022/10/02 00:14:21;;;;;;;;;8.25;4.50;;;;;18.48;50.10;101448.44;5057056;28;46133;-55
2022/10/02 00:16:51;;;;;;;;;7.00;6.75;;;;;18.48;50.54;101449.31;5058907;28;45404;-55
2022/10/02 00:19:18;;;;;;;;;7.00;6.25;;;;;18.47;50.62;101444.91;5054897;28;45220;-55
2022/10/02 00:21:53;;;;;;;;;7.00;7.00;;;;;18.48;50.78;101449.31;5041509;28;45463;-55
2022/10/02 00:24:25;;;;;;;;;9.00;7.00;;;;;18.48;50.53;101451.97;5058949;28;46100;-55
2022/10/02 00:27:14;;;;;;;;;6.50;5.50;;;;;18.47;50.58;101447.56;5059527;28;45461;-54
2022/10/02 00:29:51;;;;;;;;;5.75;5.25;;;;;18.46;50.83;101444.97;5059150;28;45337;-53
2022/10/02 00:32:36;;;;;;;;;6.75;6.50;;;;;18.46;50.58;101447.63;5059105;28;45517;-54
2022/10/02 00:35:22;;;;;;;;;4.00;4.00;;;;;18.45;51.10;101446.75;5059553;28;45584;-55
2022/10/02 00:37:59;;;;;;;;;5.50;5.50;;;;;18.45;50.73;101453.84;5059390;28;45351;-55
2022/10/02 00:41:24;;;;;;;;;8.50;7.25;;;;;18.44;51.43;101447.69;5057668;28;45320;-55
2022/10/02 00:44:14;;;;;;;;;8.00;5.25;;;;;18.45;51.31;101449.44;5019192;28;46264;-54
2022/10/02 00:47:05;;;;;;;;;5.75;5.00;;;;;18.44;51.14;101449.47;5063594;28;45419;-53
2022/10/02 00:49:46;;;;;;;;;6.00;4.75;;;;;18.42;51.21;101454.84;5052467;28;45433;-56
2022/10/02 00:52:38;;;;;;;;;4.50;3.00;;;;;18.44;51.49;101460.09;5056839;28;45478;-54
2022/10/02 00:55:16;;;;;;;;;6.75;6.25;;;;;18.45;51.36;101462.72;5042587;28;45238;-54
2022/10/02 00:57:56;;;;;;;;;6.00;4.75;;;;;18.47;51.25;101460.00;5042414;28;45383;-55
2022/10/02 01:00:24;;;;;;;;;4.75;4.75;;;;;18.48;51.46;101457.28;5027210;28;45396;-56
2022/10/02 01:03:08;;;;;;;;;5.75;4.75;;;;;18.48;51.69;101465.25;5051724;28;45231;-55
2022/10/02 01:05:34;;;;;;;;;8.00;4.00;;;;;18.50;51.34;101466.09;5045826;28;45492;-56
2022/10/02 01:08:00;;;;;;;;;6.75;5.00;;;;;18.49;51.44;101464.34;5049161;28;46061;-55
2022/10/02 01:10:27;;;;;;;;;6.50;4.75;;;;;18.50;51.57;101459.88;5058195;28;45540;-55
2022/10/02 01:12:54;;;;;;;;;6.00;6.00;;;;;18.50;51.65;101465.19;5062712;28;45320;-57
2022/10/02 01:15:23;;;;;;;;;6.00;6.00;;;;;18.51;51.92;101466.94;5066745;28;45495;-57
2022/10/02 01:17:50;;;;;;;;;5.00;4.00;;;;;18.51;51.78;101454.53;5069036;28;46305;-55
2022/10/02 01:20:25;;;;;;;;;7.75;7.75;;;;;18.52;51.89;101456.25;5041733;28;45448;-57
2022/10/02 01:23:01;;;;;;;;;5.00;3.75;;;;;18.52;52.04;101450.06;5042252;28;45467;-56
2022/10/02 01:25:28;;;;;;;;;6.00;6.00;;;;;18.52;52.15;101450.91;5041663;28;45694;-56
2022/10/02 01:27:53;;;;;;;;;4.25;4.25;;;;;18.52;52.02;101453.56;5024121;28;47448;-56
2022/10/02 01:30:20;;;;;;;;;6.00;4.75;;;;;18.54;52.13;101447.34;5041981;28;45384;-55
2022/10/02 01:32:56;;;;;;;;;4.00;4.00;;;;;18.56;52.43;101453.47;5042269;28;45293;-55
2022/10/02 01:35:26;;;;;;;;;10.25;5.00;;;;;18.57;52.02;101442.78;5042232;28;45259;-55
2022/10/02 01:37:54;;;;;;;;;5.00;3.00;;;;;18.59;52.40;101443.59;5042102;28;46129;-57
2022/10/02 01:40:31;;;;;;;;;4.00;4.00;;;;;18.62;52.23;101445.28;5041625;28;45460;-56
2022/10/02 01:43:01;;;;;;;;;6.75;5.00;;;;;18.63;52.53;101441.69;5042071;28;45242;-56
2022/10/02 01:45:56;;;;;;;;;7.00;6.50;;;;;18.65;52.36;101442.50;5041966;28;45348;-56
2022/10/02 01:48:37;;;;;;;;;7.75;4.00;;;;;18.66;52.28;101446.88;5039850;28;46133;-55
2022/10/02 01:51:32;;;;;;;;;3.50;3.00;;;;;18.66;52.67;101444.22;5040532;28;45308;-56
2022/10/02 01:54:28;;;;;;;;;4.00;4.00;;;;;18.67;52.67;101448.63;5041770;28;45269;-56
2022/10/02 01:57:02;;;;;;;;;6.00;4.00;;;;;18.68;52.67;101442.38;5041240;28;45315;-56
2022/10/02 01:59:42;;;;;;;;;4.25;4.25;;;;;18.68;53.04;101443.25;5040666;28;47099;-56
2022/10/02 02:02:37;;;;;;;;;4.00;4.00;;;;;18.68;52.78;101427.28;5048718;28;45375;-57
2022/10/02 02:05:41;;;;;;;;;3.25;3.25;;;;;18.73;52.93;101436.88;5050735;28;45362;-56
2022/10/02 02:08:24;;;;;;;;;2.00;2.00;;;;;18.73;52.95;101435.09;5061357;28;45309;-56
2022/10/02 02:11:04;;;;;;;;;3.00;2.00;;;;;18.73;53.32;101424.44;5061196;28;46288;-56
2022/10/02 02:13:47;;;;;;;;;5.25;3.50;;;;;18.74;53.16;101434.19;5043387;28;45380;-56
2022/10/02 02:16:21;;;;;;;;;3.50;2.00;;;;;18.75;53.22;101430.56;5061872;28;45351;-56
2022/10/02 02:18:49;;;;;;;;;3.25;2.00;;;;;18.75;53.67;101419.91;5040949;28;45444;-57
2022/10/02 02:21:23;;;;;;;;;5.00;3.00;;;;;18.75;53.73;101422.56;5041038;28;46910;-57
2022/10/02 02:23:51;;;;;;;;;3.00;1.75;;;;;18.73;53.51;101418.25;5041252;28;45272;-57
2022/10/02 02:26:18;;;;;;;;;2.25;2.00;;;;;18.75;54.11;101422.56;5041222;28;45242;-57
2022/10/02 02:28:52;;;;;;;;;5.50;3.25;;;;;18.74;53.72;101412.00;5041142;28;45479;-56
2022/10/02 02:31:23;;;;;;;;;3.50;2.50;;;;;18.75;53.97;101425.25;5040984;28;47125;-57
2022/10/02 02:33:58;;;;;;;;;2.00;2.00;;;;;18.73;53.89;101411.13;5041342;28;45466;-57
2022/10/02 02:36:30;;;;;;;;;3.00;2.00;;;;;18.74;54.46;101407.56;5041117;28;45470;-57
2022/10/02 02:39:01;;;;;;;;;2.25;2.25;;;;;18.74;54.06;101401.34;5041302;28;45534;-56
2022/10/02 02:41:36;;;;;;;;;3.50;3.50;;;;;18.74;54.32;101404.91;5040618;28;45490;-56
2022/10/02 02:44:16;;;;;;;;;12.75;11.00;;;;;18.72;54.43;101398.75;5040902;28;45502;-56
2022/10/02 02:47:03;;;;;;;;;3.00;3.00;;;;;18.73;54.62;101396.94;5041355;28;45309;-57
2022/10/02 02:49:36;;;;;;;;;3.25;3.25;;;;;18.74;54.38;101393.34;5040974;28;45434;-55
2022/10/02 02:52:05;;;;;;;;;3.25;3.25;;;;;18.75;54.57;101393.28;5040776;28;45406;-56
2022/10/02 02:54:37;;;;;;;;;1.50;1.50;;;;;18.75;54.40;101390.63;5040994;28;45391;-56
2022/10/02 02:57:05;;;;;;;;;5.75;3.75;;;;;18.78;54.94;101393.19;5040749;28;45372;-57
2022/10/02 02:59:33;;;;;;;;;2.00;2.00;;;;;18.77;54.46;101390.59;5040708;28;45439;-57
2022/10/02 03:01:58;;;;;;;;;2.00;2.00;;;;;18.79;55.13;101388.72;5024636;28;46411;-56
2022/10/02 03:04:23;;;;;;;;;2.25;2.25;;;;;18.78;54.88;101386.97;5060938;28;45237;-57
2022/10/02 03:06:55;;;;;;;;;3.00;2.25;;;;;18.76;54.88;101383.53;5061101;28;45228;-57
2022/10/02 03:09:22;;;;;;;;;2.75;2.75;;;;;18.79;55.23;101380.75;5060966;28;45309;-57
2022/10/02 03:12:15;;;;;;;;;3.50;2.00;;;;;18.77;55.09;101374.63;5060482;28;46465;-57
2022/10/02 03:14:46;;;;;;;;;3.75;2.50;;;;;18.78;55.27;101377.22;5061013;28;45407;-57
2022/10/02 03:17:35;;;;;;;;;4.00;2.50;;;;;18.78;55.18;101377.22;5053838;28;45340;-56
2022/10/02 03:20:15;;;;;;;;;3.00;3.00;;;;;18.76;55.43;101376.41;5040645;28;45353;-56
2022/10/02 03:22:53;;;;;;;;;3.00;3.00;;;;;18.78;55.88;101377.22;5022636;28;47956;-57
2022/10/02 03:25:28;;;;;;;;;1.00;1.00;;;;;18.78;55.75;101371.00;5040269;28;45320;-57
2022/10/02 03:28:05;;;;;;;;;4.75;3.00;;;;;18.79;55.75;101370.97;5040002;28;45404;-56
2022/10/02 03:30:32;;;;;;;;;2.00;2.00;;;;;18.79;55.65;101367.44;5040280;28;45459;-57
2022/10/02 03:32:59;;;;;;;;;1.00;1.00;;;;;18.80;56.07;101377.16;5040241;28;46406;-56
2022/10/02 03:35:26;;;;;;;;;1.25;1.25;;;;;18.76;56.02;101362.22;5040291;28;45186;-56
2022/10/02 03:37:55;;;;;;;;;1.75;1.75;;;;;18.79;56.12;101365.66;5040303;28;45306;-56
2022/10/02 03:40:25;;;;;;;;;4.00;2.00;;;;;18.82;55.82;101354.00;5039857;28;45495;-57
2022/10/02 03:42:52;;;;;;;;;3.00;2.00;;;;;18.82;55.61;101354.00;5039891;28;45999;-57
2022/10/02 03:45:18;;;;;;;;;2.00;2.00;;;;;18.81;55.86;101358.44;5040202;28;45333;-57
2022/10/02 03:47:44;;;;;;;;;2.50;2.00;;;;;18.82;55.73;101354.00;5040168;28;45262;-57
2022/10/02 03:50:13;;;;;;;;;2.00;2.00;;;;;18.83;56.18;101353.94;5039990;28;45293;-57
2022/10/02 03:52:39;;;;;;;;;2.00;2.00;;;;;18.84;56.11;101354.81;5039827;28;46243;-57
2022/10/02 03:55:27;;;;;;;;;1.25;1.00;;;;;18.87;56.50;101361.78;5039913;28;45257;-57
2022/10/02 03:57:53;;;;;;;;;2.00;2.00;;;;;18.86;56.20;101360.09;5040072;28;45321;-57
2022/10/02 04:00:27;;;;;;;;;1.50;1.50;;;;;18.88;55.98;101360.88;5039749;28;45432;-57
2022/10/02 04:02:59;;;;;;;;;1.25;1.25;;;;;18.89;55.98;101359.94;5049324;28;45353;-57
2022/10/02 04:06:05;;;;;;;;;1.25;1.25;;;;;18.90;56.27;101359.03;5059854;28;45229;-57
2022/10/02 04:08:39;;;;;;;;;2.50;1.00;;;;;18.90;56.12;101356.38;5018636;28;45459;-57
2022/10/02 04:11:12;;;;;;;;;1.00;1.00;;;;;18.89;56.44;101358.16;5046311;28;45517;-56
2022/10/02 04:13:43;;;;;;;;;2.00;2.00;;;;;18.90;56.82;101356.38;5058788;28;45423;-56
2022/10/02 04:16:14;;;;;;;;;2.00;1.00;;;;;18.90;56.23;101359.91;5060076;28;45328;-57
2022/10/02 04:18:45;;;;;;;;;3.00;1.00;;;;;18.90;56.55;101356.38;5041648;28;45295;-57
2022/10/02 04:21:42;;;;;;;;;3.00;1.50;;;;;18.89;56.75;101359.94;5046790;28;45333;-57
2022/10/02 04:24:25;;;;;;;;;0.25;0.25;;;;;18.90;56.95;101359.91;5050508;28;46214;-57
2022/10/02 04:27:26;;;;;;;;;1.50;1.00;;;;;18.89;56.91;101360.81;5041446;28;45511;-57
2022/10/02 04:29:56;;;;;;;;;1.00;1.00;;;;;18.87;56.71;101356.47;5058425;28;45537;-56
2022/10/02 04:32:33;;;;;;;;;0.00;0.00;;;;;18.91;57.14;101364.31;5059765;28;45223;-57
2022/10/02 04:34:59;;;;;;;;;1.50;0.75;;;;;18.91;56.89;101361.66;5059553;28;45276;-57
2022/10/02 04:37:31;;;;;;;;;0.00;0.00;;;;;18.94;56.82;101373.97;5059792;28;45275;-57
2022/10/02 04:40:27;;;;;;;;;2.00;0.00;;;;;18.92;57.15;101363.41;5059435;28;45237;-56
2022/10/02 04:43:27;;;;;;;;;0.50;0.50;;;;;18.96;57.24;101372.13;5041384;28;45423;-55
2022/10/02 04:46:03;;;;;;;;;0.00;0.00;;;;;18.95;57.10;101363.25;5059473;28;46369;-56
2022/10/02 04:48:50;;;;;;;;;0.00;0.00;;;;;18.97;56.98;101376.53;5059490;28;45351;-57
2022/10/02 04:51:24;;;;;;;;;0.00;0.00;;;;;19.00;56.88;101371.09;5059757;28;45324;-56
2022/10/02 04:54:01;;;;;;;;;0.50;0.50;;;;;19.00;57.01;101376.41;5059262;28;45314;-57
2022/10/02 04:56:43;;;;;;;;;0.00;0.00;;;;;19.00;57.09;101371.97;5059293;28;46114;-57
2022/10/02 04:59:19;;;;;;;;;0.00;0.00;;;;;18.99;57.34;101370.22;5058233;28;45340;-57
2022/10/02 05:01:53;;;;;;;;;0.00;0.00;;;;;19.00;57.01;101377.28;5059392;28;45376;-56
2022/10/02 05:04:41;;;;;;;;;1.00;0.00;;;;;18.99;57.25;101380.88;5041461;28;45373;-56
2022/10/02 05:07:51;;;;;;;;;2.00;1.00;;;;;19.02;57.16;101395.88;5059120;28;46333;-57
2022/10/02 05:10:54;;;;;;;;;0.00;0.00;;;;;19.02;57.32;101390.53;5019687;28;45652;-57
2022/10/02 05:13:31;;;;;;;;;0.00;0.00;;;;;19.03;57.13;101386.97;5053874;28;45354;-57
2022/10/02 05:16:18;;;;;;;;;0.00;0.00;;;;;19.04;57.12;101383.34;5059349;28;45330;-57
2022/10/02 05:19:12;;;;;;;;;0.00;0.00;;;;;19.03;57.39;101392.28;5039296;28;46112;-57
2022/10/02 05:21:47;;;;;;;;;2.00;1.00;;;;;19.03;57.06;101394.94;5038804;28;45249;-57
2022/10/02 05:24:40;;;;;;;;;0.50;0.00;;;;;19.02;57.35;101387.88;5040451;28;45296;-57
2022/10/02 05:27:29;;;;;;;;;0.75;0.75;;;;;19.02;57.25;101398.53;5050626;28;46354;-57
2022/10/02 05:30:11;;;;;;;;;0.25;0.25;;;;;19.02;57.22;101387.88;5062296;28;46158;-57
2022/10/02 05:33:04;;;;;;;;;0.00;0.00;;;;;19.00;57.44;101395.06;5062234;28;45359;-56
2022/10/02 05:35:48;;;;;;;;;0.00;0.00;;;;;18.95;57.46;101392.56;5062469;28;45418;-56
2022/10/02 05:38:51;;;;;;;;;0.25;0.00;;;;;18.93;57.34;101388.22;5062367;28;45186;-57
2022/10/02 05:41:29;;;;;;;;;0.00;0.00;;;;;18.90;57.37;101391.88;5043717;28;47201;-57
2022/10/02 05:44:11;;;;;;;;;0.00;0.00;;;;;18.91;57.46;101390.09;5043943;28;45267;-57
2022/10/02 05:46:43;;;;;;;;;1.00;1.00;;;;;18.90;57.81;101391.00;5062482;28;45312;-56
2022/10/02 05:49:19;;;;;;;;;1.00;1.00;;;;;18.91;57.37;101390.94;5062150;28;45736;-57
2022/10/02 05:51:49;;;;;;;;;1.00;1.00;;;;;18.92;57.38;101389.19;5043863;28;47515;-58
2022/10/02 05:54:40;;;;;;;;;0.00;0.00;;;;;18.92;57.33;101391.84;5062006;28;45227;-57
2022/10/02 05:57:26;;;;;;;;;0.00;0.00;;;;;18.90;57.21;101396.31;5057735;28;45266;-56
2022/10/02 06:00:03;;;;;;;;;0.00;0.00;;;;;18.92;57.20;101402.50;5041437;28;45201;-57
2022/10/02 06:02:40;;;;;;;;;0.00;0.00;;;;;18.91;57.42;101400.75;5047893;28;46185;-57
2022/10/02 06:05:17;;;;;;;;;1.00;0.00;;;;;18.91;57.17;101411.41;5043749;28;45257;-56
2022/10/02 06:07:46;;;;;;;;;0.00;0.00;;;;;18.86;57.33;101400.03;5062070;28;45251;-57
2022/10/02 06:10:18;;;;;;;;;0.00;0.00;;;;;18.87;57.44;101402.63;5043599;28;45282;-56
2022/10/02 06:12:55;;;;;;;;;0.00;0.00;;;;;18.83;57.51;101406.34;5061597;28;45318;-57
2022/10/02 06:15:48;;;;;;;;;0.00;0.00;;;;;18.84;57.48;101406.28;5061632;28;45427;-57
2022/10/02 06:18:19;;;;;;;;;0.75;0.00;;;;;18.85;57.44;101415.13;5041447;28;45485;-56
2022/10/02 06:20:53;;;;;;;;;0.00;0.00;;;;;18.85;57.62;101417.78;5041466;28;45332;-56
2022/10/02 06:23:48;;;;;;;;;0.00;0.00;;;;;18.85;57.90;101417.78;5041301;28;46202;-57
2022/10/02 06:26:18;;;;;;;;;0.25;0.25;;;;;18.84;57.94;101419.59;5039396;28;45225;-55
2022/10/02 06:28:53;;;;;;;;;0.00;0.00;;;;;18.83;57.66;101425.84;5041496;28;45313;-56
2022/10/02 06:31:45;;;;;;;;;0.00;0.00;;;;;18.83;57.94;101425.84;5041198;28;45316;-56
2022/10/02 06:34:12;;;;;;;;;0.00;0.00;;;;;18.84;57.58;101419.59;5041131;28;46288;-56
2022/10/02 06:36:57;;;;;;;;;0.00;0.00;;;;;18.84;57.83;101416.94;5040605;28;45408;-57
2022/10/02 06:39:32;;;;;;;;;1.00;1.00;;;;;18.86;57.75;101416.84;5041199;28;45377;-56
2022/10/02 06:42:18;;;;;;;;;0.25;0.00;;;;;18.84;57.94;101422.25;5040720;28;45528;-57
2022/10/02 06:45:09;;;;;;;;;0.00;0.00;;;;;18.86;57.92;101418.66;5041053;28;46079;-57
2022/10/02 06:48:02;;;;;;;;;0.50;0.50;;;;;18.87;58.31;101423.03;5040918;28;45311;-57
2022/10/02 06:51:04;;;;;;;;;0.00;0.00;;;;;18.91;58.34;101427.38;5040951;28;45204;-56
2022/10/02 06:53:54;;;;;;;;;0.00;0.00;;;;;18.95;58.27;101418.34;5021174;28;45429;-55
2022/10/02 06:56:22;;;;;;;;;0.00;0.00;;;;;18.94;58.42;101424.59;5051346;28;46124;-56
2022/10/02 06:59:26;;;;;;;;;0.00;0.00;;;;;18.97;58.80;101412.03;5040560;28;45317;-57
2022/10/02 07:02:02;;;;;;;;;0.00;0.00;;;;;18.99;58.65;101428.81;5041930;28;45469;-57
2022/10/02 07:05:07;;;;;;;;;0.00;0.00;;;;;19.00;58.64;101422.56;5061011;28;45489;-57
2022/10/02 07:08:05;;;;;;;;;0.00;0.00;;;;;18.96;58.78;101412.09;5060890;28;46333;-56
2022/10/02 07:10:45;;;;;;;;;0.00;0.00;;;;;19.01;58.63;101420.75;5060173;28;45315;-57
2022/10/02 07:13:38;;;;;;;;;0.00;0.00;;;;;19.04;58.70;101428.63;5029635;28;45361;-56
2022/10/02 07:16:18;;;;;;;;;0.00;0.00;;;;;19.00;58.75;101427.00;5060842;28;45360;-55
2022/10/02 07:18:54;;;;;;;;;0.00;0.00;;;;;18.96;58.88;101404.94;5053719;28;45310;-56
2022/10/02 07:21:47;;;;;;;;;0.00;0.00;;;;;19.06;58.91;101418.78;5040424;28;45388;-56
2022/10/02 07:24:44;;;;;;;;;0.00;0.00;;;;;19.07;59.03;101409.88;5048924;28;45332;-56
2022/10/02 07:27:10;;;;;;;;;1.00;0.00;;;;;19.10;59.08;101409.72;5049849;28;45410;-56
2022/10/02 07:29:55;;;;;;;;;0.00;0.00;;;;;19.07;58.98;101425.84;5059884;28;45249;-56
2022/10/02 07:32:34;;;;;;;;;0.50;0.00;;;;;19.04;58.54;101417.09;5053567;28;45289;-56
2022/10/02 07:35:14;;;;;;;;;0.75;0.75;;;;;19.08;58.65;101426.72;5047628;28;45179;-56
2022/10/02 07:38:22;;;;;;;;;0.00;0.00;;;;;19.06;59.09;101424.09;5060542;28;45417;-56
2022/10/02 07:41:09;;;;;;;;;0.00;0.00;;;;;19.10;58.63;101438.19;5059959;28;45409;-55
2022/10/02 07:44:02;;;;;;;;;2.00;0.00;;;;;19.11;58.45;101438.13;5042229;28;45278;-57
2022/10/02 07:46:37;;;;;;;;;0.50;0.00;;;;;19.10;58.63;101436.38;5060577;28;45284;-58
2022/10/02 07:49:21;;;;;;;;;0.50;0.50;;;;;19.08;58.90;101434.69;5059318;28;45442;-55
2022/10/02 07:51:53;;;;;;;;;1.00;1.00;;;;;19.13;58.80;101430.94;5060014;28;45423;-56
2022/10/02 07:54:47;;;;;;;;;0.50;0.25;;;;;19.14;58.79;101432.69;5042121;28;45325;-57
2022/10/02 07:57:15;;;;;;;;;2.25;2.25;;;;;19.15;58.77;101442.38;5055029;28;45559;-57
2022/10/02 07:59:43;;;;;;;;;1.00;1.00;;;;;19.17;58.64;101439.69;5038843;28;45321;-56
2022/10/02 08:02:27;;;;;;;;;2.25;1.25;;;;;19.22;58.60;101436.81;5046276;28;45295;-57
2022/10/02 08:05:00;;;;;;;;;2.00;1.00;;;;;19.28;58.49;101436.56;5060143;28;45297;-57
2022/10/02 08:07:28;;;;;;;;;1.25;1.25;;;;;19.19;58.52;101445.81;5060341;28;45326;-57
2022/10/02 08:09:56;;;;;;;;;1.25;1.00;;;;;19.25;58.75;101450.88;5024975;28;45364;-56
2022/10/02 08:12:36;;;;;;;;;2.50;2.00;;;;;19.28;58.46;101457.91;5054009;28;45296;-57
2022/10/02 08:15:04;;;;;;;;;2.00;2.00;;;;;19.30;58.67;101462.22;5057447;28;45291;-57
2022/10/02 08:17:52;;;;;;;;;1.25;1.25;;;;;19.32;58.39;101462.19;5047598;28;45170;-58
2022/10/02 08:20:38;;;;;;;;;1.75;1.50;;;;;19.34;58.51;101465.66;5028615;28;45477;-58
2022/10/02 08:23:32;;;;;;;;;3.00;1.75;;;;;19.40;58.42;101469.88;5052396;28;45399;-58
2022/10/02 08:26:10;;;;;;;;;2.25;0.75;;;;;19.40;58.33;101459.22;5046869;28;45338;-58
2022/10/02 08:28:43;;;;;;;;;1.00;1.00;;;;;19.45;58.46;101457.22;5045784;28;45483;-58
2022/10/02 08:31:10;;;;;;;;;3.50;2.00;;;;;19.50;58.30;101463.25;5042982;28;45284;-55
2022/10/02 08:33:37;;;;;;;;;3.25;2.00;;;;;19.51;57.87;101467.66;5045835;28;46431;-57
2022/10/02 08:36:18;;;;;;;;;2.50;2.50;;;;;19.56;58.15;101483.44;5048619;28;45246;-57
2022/10/02 08:38:51;;;;;;;;;7.50;1.75;;;;;19.55;58.13;101474.59;5047898;28;45428;-57
2022/10/02 08:41:23;;;;;;;;;3.00;2.25;;;;;19.55;57.56;101463.06;5034257;28;45423;-57
2022/10/02 08:44:37;;;;;;;;;4.25;2.00;;;;;19.55;57.78;101468.41;5051843;28;46457;-57
2022/10/02 08:47:33;;;;;;;;;4.50;3.50;;;;;19.63;57.56;101466.28;5045258;28;45360;-57
2022/10/02 08:50:18;;;;;;;;;3.00;2.00;;;;;19.61;58.13;101463.69;5049035;28;45345;-57
2022/10/02 08:53:25;;;;;;;;;3.00;2.00;;;;;19.68;57.43;101466.94;5040957;28;45451;-56
2022/10/02 08:56:05;;;;;;;;;1.75;1.50;;;;;19.69;57.66;101478.50;5044756;28;46335;-57
2022/10/02 08:59:02;;;;;;;;;4.75;2.00;;;;;19.73;57.35;101477.44;5043627;28;45311;-57
2022/10/02 09:01:53;;;;;;;;;2.00;2.00;;;;;19.75;57.51;101480.91;5050653;28;45229;-57
2022/10/02 09:04:40;;;;;;;;;1.75;1.75;;;;;19.73;57.55;101486.28;5049884;28;45461;-58
2022/10/02 09:07:38;;;;;;;;;2.25;2.25;;;;;19.79;57.47;101479.84;5066209;28;45453;-58
2022/10/02 09:10:25;;;;;;;;;0.75;0.75;;;;;19.83;57.87;101477.97;5047042;28;45159;-58
2022/10/02 09:13:09;;;;;;;;;1.75;1.00;;;;;19.86;57.32;101478.72;5063765;28;45460;-58
2022/10/02 09:16:03;;;;;;;;;3.00;3.00;;;;;19.89;57.37;101477.72;5050294;28;45314;-58
2022/10/02 09:18:48;;;;;;;;;4.25;2.00;;;;;19.91;57.39;101483.84;5055715;28;45464;-58
2022/10/02 09:21:18;;;;;;;;;1.75;1.75;;;;;19.91;57.23;101474.06;5060797;28;45320;-58
2022/10/02 09:23:55;;;;;;;;;1.50;1.25;;;;;19.95;57.62;101477.47;5050760;28;45391;-58
2022/10/02 09:26:35;;;;;;;;;2.75;2.75;;;;;19.93;57.63;101476.66;5046875;28;45441;-58
2022/10/02 09:29:35;;;;;;;;;1.75;1.75;;;;;20.00;57.72;101474.56;5050514;28;47372;-58
2022/10/02 09:32:20;;;;;;;;;1.75;1.75;;;;;20.04;57.22;101469.06;5060294;28;45344;-58
2022/10/02 09:35:01;;;;;;;;;5.50;3.25;;;;;20.03;57.53;101472.66;5055479;28;45402;-58
2022/10/02 09:37:44;;;;;;;;;3.50;2.25;;;;;20.05;57.59;101469.91;5049514;28;45627;-58
2022/10/02 09:40:12;;;;;;;;;5.00;1.25;;;;;20.06;57.58;101479.66;5052871;28;45466;-58
2022/10/02 09:42:49;;;;;;;;;3.75;1.75;;;;;20.05;57.76;101470.78;5048010;28;45739;-57
2022/10/02 09:45:32;;;;;;;;;1.50;1.50;;;;;20.08;57.41;101467.97;5049968;28;45426;-58
2022/10/02 09:48:16;;;;;;;;;3.00;1.00;;;;;20.10;57.41;101468.78;5051936;28;45762;-58
2022/10/02 09:50:45;;;;;;;;;3.00;2.00;;;;;20.16;57.27;101466.78;5050208;28;47035;-57
2022/10/02 09:53:19;;;;;;;;;2.25;2.00;;;;;20.19;57.57;101463.97;5049391;28;45390;-57
2022/10/02 09:56:22;;;;;;;;;3.50;3.50;;;;;20.23;57.37;101473.63;5049832;28;45379;-57
2022/10/02 09:59:10;;;;;;;;;3.25;1.75;;;;;20.23;57.71;101471.78;5050002;28;46537;-57
2022/10/02 10:02:04;;;;;;;;;5.00;2.00;;;;;20.27;57.82;101476.06;5048642;28;45479;-57
2022/10/02 10:04:54;;;;;;;;;2.00;0.25;;;;;20.29;57.33;101487.53;5060772;28;45430;-58
2022/10/02 10:07:37;;;;;;;;;1.75;1.75;;;;;20.35;57.68;101478.41;5061352;28;45254;-57
2022/10/02 10:10:32;;;;;;;;;1.00;1.00;;;;;20.34;57.74;101482.03;5047888;28;45191;-57
2022/10/02 10:13:31;;;;;;;;;1.00;1.00;;;;;20.36;57.29;101477.47;5054779;28;45475;-58
2022/10/02 10:16:17;;;;;;;;;4.00;1.75;;;;;20.36;57.13;101479.28;5040250;28;45561;-57
2022/10/02 10:19:12;;;;;;;;;1.75;1.75;;;;;20.38;57.15;101474.75;5050842;28;45328;-56
2022/10/02 10:22:14;;;;;;;;;2.00;1.00;;;;;20.37;57.61;101479.19;5039558;28;46420;-58
2022/10/02 10:24:58;;;;;;;;;1.75;1.50;;;;;20.39;57.64;101487.13;5048406;28;45445;-58
2022/10/02 10:28:06;;;;;;;;;3.75;2.50;;;;;20.50;57.19;101489.34;5052925;28;45480;-58
2022/10/02 10:31:08;;;;;;;;;2.75;2.75;;;;;20.54;57.02;101493.59;5046487;28;45454;-56
2022/10/02 10:34:11;;;;;;;;;3.50;1.25;;;;;20.51;57.12;101488.41;5049201;28;45640;-57
2022/10/02 10:39:41;;;;;;;;;2.00;1.00;;;;;20.62;57.55;101486.13;5049066;28;45182;-56
2022/10/02 10:42:38;;;;;;;;;2.50;2.00;;;;;20.66;57.43;101484.19;5050329;28;45337;-57
2022/10/02 10:45:59;;;;;;;;;2.00;2.00;;;;;20.71;57.39;101484.88;5052864;28;45510;-58
2022/10/02 10:48:39;;;;;;;;;2.50;1.25;;;;;20.76;57.29;101490.88;5034145;28;45543;-56
2022/10/02 10:51:31;;;;;;;;;2.00;1.00;;;;;20.74;57.17;101479.41;5050184;28;45407;-57
2022/10/02 10:54:33;;;;;;;;;3.75;3.00;;;;;20.81;57.01;101483.53;5031955;28;45641;-57
2022/10/02 10:57:10;;;;;;;;;2.00;2.00;;;;;20.89;56.67;101486.72;5048924;28;45448;-57
2022/10/02 10:59:50;;;;;;;;;2.25;2.25;;;;;20.97;56.50;101489.03;5060021;28;46250;-58
2022/10/02 11:02:37;;;;;;;;;2.00;1.00;;;;;21.02;57.15;101471.00;5025328;28;45372;-58
2022/10/02 11:05:24;;;;;;;;;2.25;1.00;;;;;21.13;56.78;101470.50;5054054;28;45343;-57
2022/10/02 11:08:04;;;;;;;;;1.50;0.50;;;;;21.10;56.84;101473.31;5040528;28;45400;-58
2022/10/02 11:10:55;;;;;;;;;0.00;0.00;;;;;21.19;56.44;101477.34;5040194;28;46281;-57
2022/10/02 11:14:02;;;;;;;;;0.75;0.75;;;;;21.22;56.02;101463.81;5045164;28;45333;-57
2022/10/02 11:16:55;;;;;;;;;1.00;0.25;;;;;21.26;55.83;101458.28;5054871;28;45280;-56
2022/10/02 11:19:58;;;;;;;;;1.00;1.00;;;;;21.30;56.18;101469.69;5071604;28;45461;-57
2022/10/02 11:22:56;;;;;;;;;0.25;0.25;;;;;21.28;56.03;101466.22;5049377;28;46445;-57
2022/10/02 11:25:36;;;;;;;;;1.00;1.00;;;;;21.25;55.76;101474.38;5040049;28;45253;-58
2022/10/02 11:28:04;;;;;;;;;1.00;1.00;;;;;21.34;55.80;101467.72;5040226;28;45377;-57
2022/10/02 11:30:37;;;;;;;;;2.00;0.00;;;;;21.39;56.19;101466.56;5055059;28;45836;-58
2022/10/02 11:33:24;;;;;;;;;2.00;2.00;;;;;21.43;55.83;101465.50;5042089;28;46358;-58
2022/10/02 11:35:55;;;;;;;;;0.75;0.75;;;;;21.45;55.79;101469.91;5040172;28;45347;-57
2022/10/02 11:38:50;;;;;;;;;0.25;0.25;;;;;21.53;55.35;101467.69;5042219;28;45562;-55
2022/10/02 11:41:42;;;;;;;;;1.00;1.00;;;;;21.54;55.24;101461.41;5039259;28;45486;-55
2022/10/02 11:44:19;;;;;;;;;1.25;1.25;;;;;21.55;55.79;101456.03;5053635;28;46364;-57
2022/10/02 11:47:18;;;;;;;;;2.50;1.00;;;;;21.59;55.06;101467.44;5044511;28;45415;-56
2022/10/02 11:50:15;;;;;;;;;1.00;1.00;;;;;21.59;55.27;101472.78;5048910;28;45412;-56
2022/10/02 11:52:59;;;;;;;;;2.00;2.00;;;;;21.63;55.44;101465.47;5040337;28;45636;-55
2022/10/02 11:55:27;;;;;;;;;1.50;0.75;;;;;21.62;55.13;101469.09;5047713;28;45330;-56
2022/10/02 11:57:55;;;;;;;;;0.00;0.00;;;;;21.65;55.29;101459.13;5041873;28;45266;-56
2022/10/02 12:00:55;;;;;;;;;1.00;1.00;;;;;21.63;55.36;101460.97;5043150;28;45400;-55
2022/10/02 12:03:43;;;;;;;;;1.00;0.25;;;;;21.61;55.00;101464.69;5052722;28;45487;-56
2022/10/02 12:06:21;;;;;;;;;1.00;1.00;;;;;21.52;55.35;101480.22;5059291;28;45348;-57
2022/10/02 12:09:04;;;;;;;;;1.00;1.00;;;;;21.55;55.09;101504.16;5059653;28;45589;-57
2022/10/02 12:12:08;;;;;;;;;0.25;0.25;;;;;21.55;55.47;101508.63;5058163;28;45419;-56
2022/10/02 12:14:51;;;;;;;;;1.00;1.00;;;;;21.51;55.83;101504.34;5046636;28;45270;-57
2022/10/02 12:17:31;;;;;;;;;2.00;2.00;;;;;21.48;55.95;101515.19;5047662;28;46052;-57
2022/10/02 12:28:48;;;;;;;;;1.25;0.00;;;;;21.46;57.28;101491.22;5046991;28;45840;-56
2022/10/02 12:31:21;;;;;;;;;1.00;1.00;;;;;21.53;56.97;101483.75;5049402;28;45379;-57
2022/10/02 12:34:07;;;;;;;;;1.00;1.00;;;;;21.56;56.89;101487.19;5047656;28;45628;-57
2022/10/02 12:36:33;;;;;;;;;1.00;1.00;;;;;21.60;57.14;101477.19;5035523;28;45309;-56
2022/10/02 12:39:17;;;;;;;;;1.75;1.75;;;;;21.63;57.18;101471.69;5049510;28;46323;-56
2022/10/02 12:42:10;;;;;;;;;0.75;0.75;;;;;21.67;57.08;101472.41;5059534;28;45327;-57